createdAt,value
2022-10-26T01:02:41.944Z,7.22
2022-10-26T01:05:09.023Z,6.72
2022-10-26T01:07:36.686Z,6.62
2022-10-26T01:10:03.686Z,6.87
2022-10-26T01:12:30.253Z,7.22
2022-10-26T01:19:12.237Z,7.85
2022-10-26T04:13:17.463Z,8.80
2022-10-26T04:36:36.356Z,8.50
2022-10-26T04:39:03.095Z,8.63
2022-10-26T04:41:29.641Z,8.65
2022-10-26T04:43:56.246Z,8.90
2022-10-26T04:48:58.035Z,9.20
2022-10-26T05:03:09.567Z,9.52
2022-10-26T05:05:37.681Z,9.52
2022-10-26T05:08:04.714Z,10.27
2022-10-26T05:10:31.547Z,11.32
2022-10-26T05:13:00.194Z,9.40
2022-10-26T05:15:29.772Z,9.75
2022-10-26T05:18:02.877Z,9.57
2022-10-26T05:23:07.555Z,9.20
2022-10-26T05:25:36.251Z,9.55
2022-10-26T05:28:09.615Z,9.43
2022-10-26T05:30:36.363Z,9.02
2022-10-26T05:33:03.439Z,9.30
2022-10-26T05:35:31.232Z,8.75
2022-10-26T05:37:58.354Z,8.73
2022-10-26T05:40:25.515Z,9.65
2022-10-26T05:42:55.090Z,9.52
2022-10-26T05:45:21.693Z,10.27
2022-10-26T05:47:48.603Z,10.35
2022-10-26T05:50:15.603Z,10.38
2022-10-26T05:52:46.866Z,10.55
2022-10-26T05:55:15.941Z,10.90
2022-10-26T05:57:43.602Z,10.85
2022-10-26T06:00:22.059Z,11.12
2022-10-26T06:02:51.676Z,12.32
2022-10-26T06:05:22.874Z,11.38
2022-10-26T06:07:50.258Z,11.95
2022-10-26T06:10:17.757Z,11.88
2022-10-26T06:12:44.618Z,12.30
2022-10-26T06:15:20.934Z,11.80
2022-10-26T06:18:13.419Z,11.12
2022-10-26T06:20:59.553Z,10.73
2022-10-26T06:23:50.567Z,10.50
2022-10-26T06:26:37.334Z,18.55
2022-10-26T06:29:28.435Z,14.75
2022-10-26T06:31:55.002Z,14.65
2022-10-26T07:02:45.544Z,11.20
2022-10-26T07:05:15.660Z,10.95
2022-10-26T07:07:47.366Z,12.25
2022-10-26T07:10:15.445Z,12.93
2022-10-26T07:12:41.981Z,12.73
2022-10-26T07:17:45.915Z,12.00
2022-10-26T08:28:03.241Z,10.27
2022-10-26T08:30:31.244Z,9.18
2022-10-26T08:33:02.541Z,8.65
2022-10-26T08:35:29.997Z,8.20
2022-10-26T10:06:20.248Z,8.55
2022-10-26T10:09:17.765Z,8.20
2022-10-26T10:11:57.759Z,7.53
2022-10-26T10:14:26.864Z,8.43
2022-10-26T10:16:57.995Z,8.82
2022-10-26T10:35:52.323Z,10.50
2022-10-26T10:38:40.170Z,9.80
2022-10-26T10:41:17.078Z,8.93
2022-10-26T10:43:49.681Z,9.57
2022-10-26T10:46:21.834Z,9.23
2022-10-26T10:48:53.031Z,11.68
2022-10-26T11:05:37.578Z,10.45
2022-10-26T11:08:13.537Z,9.60
2022-10-26T11:10:50.303Z,10.65
2022-10-26T11:13:31.459Z,11.30
2022-10-26T11:16:03.673Z,11.82
2022-10-26T11:18:52.725Z,11.02
2022-10-26T11:38:18.058Z,14.95
2022-10-26T11:41:05.663Z,15.77
2022-10-26T11:43:40.230Z,17.40
2022-10-26T11:46:33.219Z,17.23
2022-10-26T11:49:02.680Z,17.30
2022-10-26T12:35:33.424Z,17.67
2022-10-26T12:38:01.829Z,15.85
2022-10-26T12:40:32.943Z,15.95
2022-10-26T12:43:14.666Z,15.30
2022-10-26T12:45:43.363Z,17.45
2022-10-26T12:48:40.042Z,16.40
2022-10-26T13:36:22.943Z,15.45
2022-10-26T13:38:50.265Z,15.18
2022-10-26T13:41:40.300Z,14.20
2022-10-26T13:44:18.312Z,14.73
2022-10-26T13:46:46.715Z,14.93
2022-10-26T13:49:25.057Z,14.20
2022-10-26T14:05:28.569Z,14.87
2022-10-26T14:07:59.269Z,15.00
2022-10-26T14:10:33.011Z,16.12
2022-10-26T14:13:01.076Z,14.55
2022-10-26T14:15:31.390Z,14.77
2022-10-26T14:18:00.187Z,14.95
2022-10-26T14:20:28.807Z,15.05
2022-10-26T14:52:53.905Z,17.42
2022-10-26T14:55:21.561Z,16.15
2022-10-26T14:57:51.084Z,16.83
2022-10-26T15:00:20.867Z,15.85
2022-10-26T15:02:55.998Z,17.00
2022-10-26T15:05:35.742Z,17.05
2022-10-26T15:40:27.141Z,18.85
2022-10-26T15:42:55.087Z,17.55
2022-10-26T15:45:24.428Z,17.98
2022-10-26T15:47:56.761Z,16.95
2022-10-26T15:50:29.281Z,18.05
2022-10-26T16:13:41.615Z,18.55
2022-10-26T16:16:13.698Z,18.10
2022-10-26T16:18:40.507Z,19.02
2022-10-26T16:21:13.537Z,20.05
2022-10-26T16:47:28.893Z,21.15
2022-10-26T16:49:55.496Z,20.33
2022-10-26T16:52:22.045Z,22.15
2022-10-26T16:54:48.937Z,21.67
2022-10-26T16:57:15.543Z,23.20
2022-10-26T16:59:42.175Z,23.77
2022-10-26T17:02:10.525Z,25.60
2022-10-26T17:04:37.279Z,24.73
2022-10-26T17:07:03.823Z,24.95
2022-10-26T17:09:30.352Z,27.15
2022-10-26T17:12:01.662Z,28.00
2022-10-26T17:14:28.617Z,27.92
2022-10-26T17:16:55.200Z,28.35
2022-10-26T17:19:21.742Z,28.70
2022-10-26T17:21:48.605Z,29.10
2022-10-26T17:24:15.328Z,28.08
2022-10-26T17:26:42.292Z,29.10
2022-10-26T17:31:41.315Z,33.45
2022-10-26T17:34:08.004Z,31.85
2022-10-26T17:36:34.751Z,31.20
2022-10-26T17:39:01.412Z,32.08
2022-10-26T17:41:28.818Z,32.50
2022-10-26T17:43:55.402Z,35.10
2022-10-26T17:46:27.487Z,32.42
2022-10-26T17:48:58.917Z,32.75
2022-10-26T17:51:27.375Z,31.50
2022-10-26T17:53:54.592Z,30.92
2022-10-26T17:56:23.856Z,31.33
2022-10-26T17:58:59.018Z,31.12
2022-10-26T18:01:33.046Z,30.83
2022-10-26T18:04:00.450Z,30.70
2022-10-26T18:06:27.224Z,28.25
2022-10-26T18:08:53.792Z,28.45
2022-10-26T18:11:26.954Z,28.35
2022-10-26T18:13:57.559Z,25.58
2022-10-26T18:19:02.051Z,26.95
2022-10-26T18:21:31.162Z,26.87
2022-10-26T18:23:57.756Z,26.45
2022-10-26T18:26:48.147Z,34.67
2022-10-26T18:29:14.833Z,34.28
2022-10-26T18:31:41.473Z,30.55
2022-10-26T18:34:08.080Z,27.87
2022-10-26T18:36:35.098Z,28.75
2022-10-26T18:39:02.084Z,26.20
2022-10-26T18:41:29.098Z,25.90
2022-10-26T18:43:58.982Z,27.30
2022-10-26T18:46:31.254Z,26.67
2022-10-26T18:49:00.873Z,27.23
2022-10-26T18:51:34.550Z,27.48
2022-10-26T18:54:01.766Z,25.27
2022-10-26T18:56:28.603Z,25.25
2022-10-26T18:58:58.442Z,25.75
2022-10-26T19:01:33.914Z,27.92
2022-10-26T19:04:05.849Z,29.17
2022-10-26T19:06:35.092Z,28.12
2022-10-26T19:09:02.130Z,30.52
2022-10-26T19:11:31.658Z,28.40
2022-10-26T19:13:58.438Z,28.23
2022-10-26T19:16:44.561Z,26.55
2022-10-26T19:19:13.704Z,25.62
2022-10-26T19:21:40.285Z,25.23
2022-10-26T19:24:12.186Z,22.52
2022-10-26T19:26:42.385Z,23.52
2022-10-26T19:29:14.556Z,23.20
2022-10-26T19:31:41.876Z,24.23
2022-10-26T19:34:10.552Z,24.05
2022-10-26T19:36:37.101Z,23.42
2022-10-26T19:39:03.753Z,24.33
2022-10-26T19:41:31.414Z,23.27
2022-10-26T19:46:28.628Z,23.77
2022-10-26T19:49:02.047Z,23.10
2022-10-26T19:51:30.231Z,22.10
2022-10-26T19:54:03.114Z,19.75
2022-10-26T19:56:31.246Z,21.52
2022-10-26T19:58:58.020Z,20.12
2022-10-26T20:01:24.955Z,18.45
2022-10-26T20:03:51.636Z,19.23
2022-10-26T20:06:18.715Z,18.62
2022-10-26T20:08:48.357Z,15.57
2022-10-26T20:11:16.758Z,13.60
2022-10-26T20:13:45.466Z,12.25
2022-10-26T20:18:48.868Z,12.13
2022-10-26T20:21:17.105Z,11.90
2022-10-26T20:23:44.514Z,10.73
2022-10-26T20:26:18.763Z,11.20
2022-10-26T20:28:51.485Z,10.70
2022-10-26T20:31:18.193Z,10.35
2022-10-26T20:33:44.793Z,9.88
2022-10-26T20:36:11.431Z,10.15
2022-10-26T20:38:39.893Z,9.63
2022-10-26T20:41:12.246Z,9.63
2022-10-26T20:43:40.418Z,9.02
2022-10-26T20:46:10.080Z,8.98
2022-10-26T20:48:38.701Z,8.95
2022-10-26T20:54:29.427Z,9.23
2022-10-26T20:57:00.234Z,8.70
2022-10-26T20:59:36.830Z,8.82
2022-10-26T21:02:04.353Z,8.68
2022-10-26T21:04:31.120Z,6.97
2022-10-26T21:06:57.700Z,7.32
2022-10-26T21:09:55.182Z,7.30
2022-10-26T21:15:36.582Z,6.62
2022-10-26T21:18:03.501Z,6.57
2022-10-26T21:20:31.009Z,6.60
2022-10-26T21:22:57.565Z,6.12
2022-10-26T21:25:26.230Z,6.70
2022-10-26T21:27:57.312Z,7.43
2022-10-26T21:56:59.816Z,10.07
2022-10-26T21:59:26.323Z,10.65
2022-10-26T22:01:52.950Z,11.35
2022-10-26T22:04:19.548Z,10.60
2022-10-26T22:09:28.762Z,10.43
2022-10-26T22:12:02.810Z,10.25
2022-10-26T22:17:16.648Z,10.35
2022-10-26T22:19:47.895Z,11.18
2022-10-26T22:22:14.430Z,11.02
2022-10-26T22:24:41.141Z,10.73
2022-10-26T22:49:39.694Z,10.13
2022-10-26T22:52:06.248Z,10.75
2022-10-26T22:54:32.816Z,10.23
2022-10-26T22:57:02.026Z,10.25
2022-10-26T22:59:28.566Z,10.50
2022-10-26T23:01:55.279Z,10.00
2022-10-26T23:04:49.790Z,9.25
2022-10-26T23:26:17.063Z,9.95
2022-10-26T23:28:44.300Z,10.13
2022-10-26T23:31:22.797Z,10.73
2022-10-26T23:33:50.390Z,9.98
2022-10-26T23:36:16.979Z,11.05
2022-10-26T23:38:43.836Z,10.32
2022-10-26T23:41:12.848Z,10.48
